createdAt,value
2017-12-14T00:02:03.758Z,6.57
2017-12-14T00:04:30.711Z,6.80
2017-12-14T00:06:57.614Z,6.23
2017-12-14T00:09:24.769Z,6.70
2017-12-14T00:11:51.644Z,6.40
2017-12-14T00:14:18.533Z,7.30
2017-12-14T00:16:45.401Z,7.10
2017-12-14T00:19:12.306Z,7.00
2017-12-14T00:21:39.496Z,6.80
2017-12-14T00:24:06.390Z,6.45
2017-12-14T00:26:33.290Z,6.80
2017-12-14T00:29:00.451Z,6.25
2017-12-14T00:31:27.338Z,6.28
2017-12-14T00:33:54.239Z,7.10
2017-12-14T00:36:21.393Z,6.57
2017-12-14T00:38:48.524Z,6.50
2017-12-14T00:41:15.389Z,6.70
2017-12-14T00:43:44.470Z,6.00
2017-12-14T00:46:11.616Z,6.30
2017-12-14T00:48:38.534Z,5.60
2017-12-14T00:51:05.466Z,6.63
2017-12-14T00:53:32.662Z,5.75
2017-12-14T00:55:59.805Z,6.25
2017-12-14T00:58:26.673Z,6.22
2017-12-14T01:00:53.907Z,5.80
2017-12-14T01:03:20.809Z,6.10
2017-12-14T01:05:47.692Z,5.80
2017-12-14T01:08:14.553Z,6.10
2017-12-14T01:10:41.690Z,6.20
2017-12-14T01:13:08.629Z,6.50
2017-12-14T01:15:35.543Z,5.90
2017-12-14T01:18:02.726Z,5.80
2017-12-14T01:20:29.985Z,6.40
2017-12-14T01:22:57.133Z,6.12
2017-12-14T01:25:23.977Z,6.20
2017-12-14T01:27:51.126Z,6.25
2017-12-14T01:30:18.752Z,5.55
2017-12-14T01:32:45.937Z,6.00
2017-12-14T01:35:12.834Z,6.10
2017-12-14T01:37:39.697Z,6.00
2017-12-14T01:40:06.564Z,5.60
2017-12-14T01:42:33.483Z,6.60
2017-12-14T01:45:00.671Z,5.82
2017-12-14T01:47:27.570Z,5.70
2017-12-14T01:49:54.627Z,5.97
2017-12-14T01:52:21.509Z,5.70
2017-12-14T01:54:48.381Z,5.70
2017-12-14T01:57:15.601Z,5.75
2017-12-14T01:59:42.489Z,5.40
2017-12-14T02:02:09.700Z,6.20
2017-12-14T02:04:36.951Z,5.25
2017-12-14T02:07:03.839Z,4.90
2017-12-14T02:09:30.937Z,4.10
2017-12-14T02:11:57.829Z,4.43
2017-12-14T02:14:25.043Z,4.03
2017-12-14T02:16:51.925Z,4.03
2017-12-14T02:19:19.129Z,4.10
2017-12-14T02:21:46.294Z,4.10
2017-12-14T02:24:13.186Z,4.00
2017-12-14T02:26:40.351Z,3.40
2017-12-14T02:29:07.525Z,3.10
2017-12-14T02:31:34.414Z,2.80
2017-12-14T02:34:01.533Z,3.20
2017-12-14T02:36:28.433Z,3.50
2017-12-14T02:38:55.612Z,3.20
2017-12-14T02:41:22.532Z,3.20
2017-12-14T02:43:49.717Z,3.00
2017-12-14T02:46:16.601Z,2.90
2017-12-14T02:48:43.555Z,2.90
2017-12-14T02:51:10.450Z,3.08
2017-12-14T02:53:37.331Z,3.00
2017-12-14T02:56:04.540Z,3.00
2017-12-14T02:58:31.693Z,2.40
2017-12-14T03:00:58.602Z,2.40
2017-12-14T03:03:25.493Z,2.20
2017-12-14T03:05:52.376Z,2.20
2017-12-14T03:08:19.293Z,2.50
2017-12-14T03:10:46.525Z,2.90
2017-12-14T03:13:13.672Z,2.90
2017-12-14T03:15:40.827Z,3.20
2017-12-14T03:18:07.721Z,3.50
2017-12-14T03:20:34.610Z,3.80
2017-12-14T03:23:01.717Z,3.50
2017-12-14T03:25:28.595Z,3.63
2017-12-14T03:27:55.478Z,3.60
2017-12-14T03:30:22.382Z,3.40
2017-12-14T03:32:49.260Z,3.80
2017-12-14T03:35:16.109Z,4.13
2017-12-14T03:37:42.982Z,4.65
2017-12-14T03:40:09.881Z,4.70
2017-12-14T03:42:37.026Z,4.80
2017-12-14T03:45:03.898Z,4.70
2017-12-14T03:47:30.814Z,5.62
2017-12-14T03:49:57.685Z,5.30
2017-12-14T03:52:24.905Z,5.40
2017-12-14T03:54:51.821Z,5.72
2017-12-14T03:57:18.742Z,5.85
2017-12-14T03:59:45.618Z,5.80
2017-12-14T04:02:12.523Z,5.43
2017-12-14T04:04:39.738Z,5.43
2017-12-14T04:07:06.585Z,5.73
2017-12-14T04:09:33.534Z,5.27
2017-12-14T04:12:00.478Z,5.10
2017-12-14T04:14:27.397Z,4.80
2017-12-14T04:16:54.670Z,4.62
2017-12-14T04:19:21.577Z,4.50
2017-12-14T04:21:48.480Z,4.00
2017-12-14T04:24:15.705Z,3.87
2017-12-14T04:26:42.864Z,4.18
2017-12-14T04:29:10.118Z,3.60
2017-12-14T04:31:37.373Z,3.80
2017-12-14T04:34:04.334Z,4.20
2017-12-14T04:36:31.571Z,3.62
2017-12-14T04:38:58.828Z,3.78
2017-12-14T04:41:25.717Z,3.55
2017-12-14T04:43:52.642Z,4.40
2017-12-14T04:46:19.559Z,3.70
2017-12-14T04:48:46.721Z,3.80
2017-12-14T04:51:13.849Z,3.70
2017-12-14T04:53:41.110Z,3.50
2017-12-14T04:56:08.009Z,3.60
2017-12-14T04:58:35.213Z,3.65
2017-12-14T05:01:02.101Z,3.20
2017-12-14T05:03:28.993Z,3.65
2017-12-14T05:05:56.137Z,3.55
2017-12-14T05:08:23.074Z,3.40
2017-12-14T05:10:49.933Z,4.10
2017-12-14T05:13:16.804Z,3.70
2017-12-14T05:15:43.694Z,3.50
2017-12-14T05:18:10.864Z,3.70
2017-12-14T05:20:38.021Z,4.10
2017-12-14T05:23:05.281Z,3.33
2017-12-14T05:25:32.520Z,3.58
2017-12-14T05:27:59.420Z,3.92
2017-12-14T05:30:26.361Z,3.60
2017-12-14T05:32:53.564Z,3.67
2017-12-14T05:35:20.716Z,3.70
2017-12-14T05:37:47.734Z,4.10
2017-12-14T05:40:14.627Z,4.32
2017-12-14T05:42:41.575Z,3.90
2017-12-14T05:45:08.806Z,4.40
2017-12-14T05:47:36.062Z,4.60
2017-12-14T05:50:02.936Z,4.30
2017-12-14T05:52:29.890Z,4.37
2017-12-14T05:54:56.783Z,6.50
2017-12-14T05:57:23.699Z,4.43
2017-12-14T05:59:50.624Z,4.30
2017-12-14T06:02:17.530Z,5.30
2017-12-14T06:04:44.441Z,4.70
2017-12-14T06:07:11.385Z,5.50
2017-12-14T06:09:38.286Z,4.78
2017-12-14T06:12:05.198Z,4.28
2017-12-14T06:14:32.121Z,4.25
2017-12-14T06:16:59.034Z,4.47
2017-12-14T06:19:26.309Z,4.53
2017-12-14T06:21:53.189Z,4.10
2017-12-14T06:24:20.114Z,4.20
2017-12-14T06:26:47.016Z,3.90
2017-12-14T06:29:13.987Z,6.97
2017-12-14T06:31:40.899Z,4.80
2017-12-14T06:34:07.810Z,4.50
2017-12-14T06:36:34.737Z,4.60
2017-12-14T06:39:01.913Z,4.80
2017-12-14T06:41:28.825Z,5.15
2017-12-14T06:43:56.626Z,4.85
2017-12-14T06:46:23.512Z,4.70
2017-12-14T06:48:50.722Z,4.97
2017-12-14T06:51:17.969Z,5.50
2017-12-14T06:53:44.886Z,6.15
2017-12-14T06:56:11.800Z,5.60
2017-12-14T06:58:38.759Z,5.18
2017-12-14T07:01:05.706Z,5.63
2017-12-14T07:03:32.606Z,5.50
2017-12-14T07:05:59.513Z,5.50
2017-12-14T07:08:26.412Z,4.97
2017-12-14T07:10:53.293Z,4.93
2017-12-14T07:13:20.168Z,4.90
2017-12-14T07:15:47.434Z,5.47
2017-12-14T07:18:14.585Z,6.03
2017-12-14T07:20:41.522Z,5.85
2017-12-14T07:23:08.441Z,5.40
2017-12-14T07:25:35.386Z,5.50
2017-12-14T07:28:02.288Z,5.20
2017-12-14T07:30:29.162Z,5.90
2017-12-14T07:32:56.361Z,5.45
2017-12-14T07:35:23.542Z,5.90
2017-12-14T07:37:50.758Z,5.07
2017-12-14T07:40:18.014Z,4.85
2017-12-14T07:42:50.815Z,5.60
2017-12-14T07:45:24.460Z,4.80
2017-12-14T07:47:57.324Z,4.60
2017-12-14T07:50:24.246Z,5.30
2017-12-14T07:52:51.373Z,5.22
2017-12-14T07:55:18.537Z,5.20
2017-12-14T07:57:45.413Z,5.03
2017-12-14T08:00:12.603Z,5.10
2017-12-14T08:02:39.579Z,5.12
2017-12-14T08:05:06.518Z,5.05
2017-12-14T08:07:33.405Z,5.00
2017-12-14T08:10:00.334Z,5.45
2017-12-14T08:12:27.213Z,4.72
2017-12-14T08:14:54.131Z,5.47
2017-12-14T08:17:21.306Z,5.10
2017-12-14T08:19:48.185Z,5.00
2017-12-14T08:22:15.358Z,5.00
2017-12-14T08:24:42.282Z,5.30
2017-12-14T08:27:09.165Z,5.13
2017-12-14T08:29:36.058Z,4.33
2017-12-14T08:32:03.193Z,4.60
2017-12-14T08:34:30.096Z,4.70
2017-12-14T08:36:57.318Z,5.10
2017-12-14T08:39:24.235Z,5.07
2017-12-14T08:41:51.174Z,4.87
2017-12-14T08:44:18.132Z,5.30
2017-12-14T08:46:45.410Z,5.45
2017-12-14T08:49:12.297Z,4.93
2017-12-14T08:51:39.506Z,5.20
2017-12-14T08:54:06.662Z,5.50
2017-12-14T08:56:33.598Z,5.20
2017-12-14T08:59:00.509Z,5.20
2017-12-14T09:01:27.408Z,5.47
2017-12-14T09:03:54.533Z,5.72
2017-12-14T09:06:21.389Z,5.15
2017-12-14T09:08:48.629Z,5.70
2017-12-14T09:11:15.563Z,5.40
2017-12-14T09:13:42.487Z,5.57
2017-12-14T09:16:09.778Z,5.10
2017-12-14T09:18:36.814Z,5.47
2017-12-14T09:21:03.705Z,5.68
2017-12-14T09:23:30.922Z,6.40
2017-12-14T09:25:57.849Z,6.00
2017-12-14T09:28:24.786Z,7.13
2017-12-14T09:30:51.701Z,10.37
2017-12-14T09:33:19.120Z,5.30
2017-12-14T09:35:46.061Z,6.40
2017-12-14T09:38:13.204Z,5.95
2017-12-14T09:40:40.113Z,6.57
2017-12-14T09:43:07.301Z,6.65
2017-12-14T09:45:34.463Z,6.90
2017-12-14T09:48:01.366Z,6.70
2017-12-14T09:50:28.266Z,6.30
2017-12-14T09:52:55.498Z,6.78
2017-12-14T09:55:22.483Z,6.40
2017-12-14T09:57:49.369Z,6.97
2017-12-14T10:00:16.295Z,6.72
2017-12-14T10:02:43.199Z,7.28
2017-12-14T10:05:10.425Z,7.20
2017-12-14T10:07:37.684Z,7.30
2017-12-14T10:10:04.828Z,7.28
2017-12-14T10:12:32.190Z,7.40
2017-12-14T10:14:59.114Z,7.15
2017-12-14T10:17:26.000Z,7.12
2017-12-14T10:19:54.146Z,6.90
2017-12-14T10:22:21.406Z,7.37
2017-12-14T10:24:48.362Z,7.45
2017-12-14T10:27:15.221Z,6.55
2017-12-14T10:29:42.121Z,6.70
2017-12-14T10:32:09.013Z,6.32
2017-12-14T10:34:35.907Z,6.80
2017-12-14T10:37:03.179Z,7.20
2017-12-14T10:39:30.110Z,6.47
2017-12-14T10:41:57.011Z,6.70
2017-12-14T10:44:23.921Z,7.25
2017-12-14T10:46:50.813Z,6.60
2017-12-14T10:49:17.730Z,6.50
2017-12-14T10:51:44.621Z,7.10
2017-12-14T10:54:11.546Z,6.30
2017-12-14T10:56:38.863Z,6.32
2017-12-14T10:59:05.785Z,5.90
2017-12-14T11:01:32.706Z,5.70
2017-12-14T11:03:59.622Z,5.40
2017-12-14T11:06:26.524Z,5.40
2017-12-14T11:08:53.399Z,4.87
2017-12-14T11:11:20.303Z,4.03
2017-12-14T11:13:47.573Z,4.37
2017-12-14T11:16:14.477Z,4.20
2017-12-14T11:18:41.423Z,4.10
2017-12-14T11:21:08.610Z,4.70
2017-12-14T11:23:35.762Z,4.70
2017-12-14T11:26:02.679Z,4.12
2017-12-14T11:28:29.851Z,3.90
2017-12-14T11:30:57.008Z,4.00
2017-12-14T11:33:23.926Z,3.90
2017-12-14T11:35:51.101Z,3.65
2017-12-14T11:38:18.013Z,3.70
2017-12-14T11:40:45.198Z,3.10
2017-12-14T11:43:12.451Z,3.67
2017-12-14T11:45:39.331Z,3.40
2017-12-14T11:48:06.545Z,2.60
2017-12-14T11:50:33.486Z,2.40
2017-12-14T11:53:00.398Z,2.58
2017-12-14T11:55:27.310Z,2.20
2017-12-14T11:57:54.529Z,2.20
2017-12-14T12:00:22.149Z,2.30
2017-12-14T12:02:49.679Z,1.80
2017-12-14T12:05:16.608Z,1.70
2017-12-14T12:07:43.723Z,1.80
2017-12-14T12:10:10.903Z,1.80
2017-12-14T12:12:38.149Z,2.00
2017-12-14T12:15:05.030Z,1.87
2017-12-14T12:17:31.942Z,1.80
2017-12-14T12:19:58.895Z,2.10
2017-12-14T12:22:26.141Z,2.28
2017-12-14T12:24:53.285Z,2.10
2017-12-14T12:27:20.199Z,2.08
2017-12-14T12:29:47.115Z,2.10
2017-12-14T12:32:14.329Z,2.05
2017-12-14T12:34:41.273Z,2.30
2017-12-14T12:37:08.190Z,2.20
2017-12-14T12:39:35.076Z,2.55
2017-12-14T12:42:02.009Z,2.30
2017-12-14T12:44:28.929Z,2.30
2017-12-14T12:46:56.110Z,2.20
2017-12-14T12:49:23.030Z,2.30
2017-12-14T12:51:49.922Z,1.80
2017-12-14T12:54:16.791Z,1.90
2017-12-14T12:56:43.991Z,2.20
2017-12-14T12:59:10.881Z,2.00
2017-12-14T13:01:37.849Z,1.87
2017-12-14T13:04:04.810Z,2.10
2017-12-14T13:06:31.977Z,2.00
2017-12-14T13:08:58.946Z,2.00
2017-12-14T13:11:25.885Z,1.80
2017-12-14T13:13:52.746Z,1.77
2017-12-14T13:16:19.962Z,2.00
2017-12-14T13:18:46.894Z,2.20
2017-12-14T13:21:13.807Z,1.80
2017-12-14T13:23:41.000Z,2.12
2017-12-14T13:26:07.897Z,2.33
2017-12-14T13:28:35.017Z,2.30
2017-12-14T13:31:01.929Z,2.10
2017-12-14T13:33:29.096Z,2.50
2017-12-14T13:35:56.350Z,3.00
2017-12-14T13:38:23.258Z,2.78
2017-12-14T13:40:50.457Z,2.90
2017-12-14T13:43:17.748Z,3.10
2017-12-14T13:45:45.516Z,3.05
2017-12-14T13:48:12.425Z,3.20
2017-12-14T13:50:39.309Z,3.42
2017-12-14T13:53:06.205Z,3.50
2017-12-14T13:55:33.341Z,3.70
2017-12-14T13:58:00.500Z,4.60
2017-12-14T14:00:27.640Z,4.43
2017-12-14T14:02:54.582Z,4.85
2017-12-14T14:05:21.474Z,4.82
2017-12-14T14:07:48.386Z,4.60
2017-12-14T14:10:15.266Z,4.65
2017-12-14T14:12:42.174Z,4.80
2017-12-14T14:15:09.320Z,4.72
2017-12-14T14:17:36.494Z,4.62
2017-12-14T14:20:03.585Z,4.82
2017-12-14T14:22:30.769Z,4.70
2017-12-14T14:27:37.973Z,4.18
2017-12-14T14:30:04.902Z,4.10
2017-12-14T14:32:32.064Z,4.12
2017-12-14T14:34:59.218Z,3.67
2017-12-14T14:37:26.126Z,4.23
2017-12-14T14:39:53.320Z,3.63
2017-12-14T14:42:20.195Z,3.80
2017-12-14T14:44:47.077Z,4.12
2017-12-14T14:47:13.934Z,3.80
2017-12-14T14:49:41.099Z,3.90
2017-12-14T14:52:08.005Z,4.50
2017-12-14T14:54:34.906Z,4.80
2017-12-14T14:57:02.037Z,4.50
2017-12-14T14:59:28.880Z,4.90
2017-12-14T15:01:55.751Z,4.72
2017-12-14T15:04:23.794Z,5.35
2017-12-14T15:06:50.945Z,5.78
2017-12-14T15:09:18.093Z,5.77
2017-12-14T15:11:45.320Z,6.40
2017-12-14T15:14:12.226Z,6.85
2017-12-14T15:16:39.754Z,6.10
2017-12-14T15:19:06.629Z,6.60
2017-12-14T15:21:33.776Z,6.60
2017-12-14T15:24:00.675Z,7.03
2017-12-14T15:26:27.842Z,6.87
2017-12-14T15:28:54.989Z,6.90
2017-12-14T15:31:21.844Z,7.78
2017-12-14T15:33:48.684Z,8.10
2017-12-14T15:36:16.281Z,8.20
2017-12-14T15:38:43.454Z,7.47
2017-12-14T15:41:10.370Z,6.95
2017-12-14T15:43:37.278Z,7.53
2017-12-14T15:46:04.207Z,6.90
2017-12-14T15:48:31.057Z,7.15
2017-12-14T15:50:57.937Z,7.40
2017-12-14T15:53:24.854Z,7.10
2017-12-14T15:55:51.709Z,7.03
2017-12-14T15:58:18.565Z,6.80
2017-12-14T16:00:45.693Z,7.15
2017-12-14T16:03:12.573Z,6.10
2017-12-14T16:05:39.529Z,6.40
2017-12-14T16:08:06.739Z,5.90
2017-12-14T16:10:33.593Z,6.10
2017-12-14T16:13:00.472Z,6.10
2017-12-14T16:15:27.594Z,6.10
2017-12-14T16:17:54.490Z,5.60
2017-12-14T16:20:21.670Z,5.60
2017-12-14T16:22:48.577Z,5.97
2017-12-14T16:25:15.464Z,5.70
2017-12-14T16:27:42.305Z,6.30
2017-12-14T16:30:09.153Z,6.40
2017-12-14T16:32:36.054Z,7.15
2017-12-14T16:35:02.969Z,6.20
2017-12-14T16:37:29.890Z,6.00
2017-12-14T16:39:56.782Z,6.35
2017-12-14T16:42:24.524Z,6.30
2017-12-14T16:44:51.450Z,7.40
2017-12-14T16:47:18.449Z,7.60
2017-12-14T16:49:45.367Z,5.62
2017-12-14T16:52:12.302Z,6.10
2017-12-14T16:54:39.244Z,6.30
2017-12-14T16:57:06.467Z,5.90
2017-12-14T16:59:33.398Z,7.97
2017-12-14T17:02:00.321Z,5.85
2017-12-14T17:04:27.239Z,5.80
2017-12-14T17:06:54.227Z,5.10
2017-12-14T17:09:21.910Z,5.30
2017-12-14T17:11:50.879Z,5.90
2017-12-14T17:14:18.979Z,4.87
2017-12-14T17:16:45.911Z,4.60
2017-12-14T17:19:12.879Z,4.70
2017-12-14T17:21:39.879Z,4.45
2017-12-14T17:24:06.785Z,4.22
2017-12-14T17:26:33.660Z,3.72
2017-12-14T17:29:00.855Z,4.25
2017-12-14T17:31:27.835Z,3.90
2017-12-14T17:33:55.054Z,4.00
2017-12-14T17:36:21.975Z,4.30
2017-12-14T17:38:49.663Z,3.92
2017-12-14T17:41:16.918Z,3.80
2017-12-14T17:43:43.798Z,3.72
2017-12-14T17:46:10.678Z,4.00
2017-12-14T17:48:37.586Z,3.50
2017-12-14T17:51:04.481Z,4.12
2017-12-14T17:53:31.385Z,3.90
2017-12-14T17:55:58.286Z,3.85
2017-12-14T17:58:25.171Z,4.00
2017-12-14T18:00:52.273Z,4.20
2017-12-14T18:03:19.130Z,4.70
2017-12-14T18:05:46.369Z,4.70
2017-12-14T18:08:13.260Z,4.62
2017-12-14T18:10:40.466Z,5.00
2017-12-14T18:13:07.615Z,4.90
2017-12-14T18:15:35.176Z,5.70
2017-12-14T18:18:02.291Z,5.53
2017-12-14T18:20:29.170Z,6.30
2017-12-14T18:22:56.053Z,6.30
2017-12-14T18:25:22.917Z,6.15
2017-12-14T18:27:49.810Z,7.00
2017-12-14T18:30:16.709Z,7.10
2017-12-14T18:32:43.572Z,6.53
2017-12-14T18:35:10.454Z,6.32
2017-12-14T18:37:37.365Z,7.20
2017-12-14T18:40:04.221Z,7.00
2017-12-14T18:42:31.154Z,7.35
2017-12-14T18:44:58.321Z,7.13
2017-12-14T18:47:25.173Z,7.18
2017-12-14T18:49:52.037Z,7.65
2017-12-14T18:52:18.926Z,10.02
2017-12-14T18:54:46.099Z,7.90
2017-12-14T18:57:13.354Z,8.55
2017-12-14T18:59:40.606Z,8.75
2017-12-14T19:02:07.769Z,9.10
2017-12-14T19:04:34.946Z,8.60
2017-12-14T19:07:02.161Z,9.10
2017-12-14T19:09:29.044Z,9.40
2017-12-14T19:11:55.868Z,8.95
2017-12-14T19:14:22.974Z,9.20
2017-12-14T19:16:49.839Z,8.80
2017-12-14T19:19:16.688Z,8.57
2017-12-14T19:21:43.517Z,8.30
2017-12-14T19:24:10.351Z,8.40
2017-12-14T19:26:37.190Z,7.68
2017-12-14T19:29:04.058Z,7.00
2017-12-14T19:31:30.874Z,7.70
2017-12-14T19:33:58.034Z,7.10
2017-12-14T19:36:24.890Z,7.03
2017-12-14T19:38:51.728Z,7.93
2017-12-14T19:41:18.543Z,7.00
2017-12-14T19:43:45.382Z,7.90
2017-12-14T19:46:12.450Z,7.60
2017-12-14T19:48:39.290Z,7.53
2017-12-14T19:51:06.156Z,7.97
2017-12-14T19:53:33.191Z,8.00
2017-12-14T19:56:00.028Z,9.30
2017-12-14T19:58:26.851Z,8.35
2017-12-14T20:00:53.703Z,8.10
2017-12-14T20:03:20.543Z,7.50
2017-12-14T20:05:47.594Z,7.60
2017-12-14T20:08:14.772Z,7.93
2017-12-14T20:10:41.647Z,7.65
2017-12-14T20:13:08.750Z,8.65
2017-12-14T20:15:35.623Z,8.45
2017-12-14T20:18:02.479Z,8.32
2017-12-14T20:20:29.354Z,9.00
2017-12-14T20:22:56.224Z,8.25
2017-12-14T20:25:23.039Z,8.70
2017-12-14T20:27:50.222Z,9.40
2017-12-14T20:30:17.054Z,8.52
2017-12-14T20:32:43.919Z,8.27
2017-12-14T20:35:10.756Z,8.52
2017-12-14T20:37:37.573Z,9.50
2017-12-14T20:40:04.390Z,8.52
2017-12-14T20:42:31.260Z,9.20
2017-12-14T20:44:58.078Z,9.68
2017-12-14T20:47:24.932Z,9.70
2017-12-14T20:49:51.810Z,9.50
2017-12-14T20:52:18.958Z,9.57
2017-12-14T20:54:46.017Z,9.48
2017-12-14T20:57:12.868Z,9.10
2017-12-14T20:59:39.731Z,8.73
2017-12-14T21:02:06.847Z,8.90
2017-12-14T21:04:33.736Z,9.13
2017-12-14T21:07:00.577Z,7.85
2017-12-14T21:09:27.390Z,7.70
2017-12-14T21:11:54.233Z,7.90
2017-12-14T21:14:21.073Z,9.00
2017-12-14T21:16:47.884Z,8.60
2017-12-14T21:19:14.739Z,12.02
2017-12-14T21:21:41.596Z,9.85
2017-12-14T21:24:08.735Z,9.23
2017-12-14T21:26:35.551Z,13.57
2017-12-14T21:29:02.365Z,11.35
2017-12-14T21:31:29.242Z,9.40
2017-12-14T21:33:56.314Z,8.82
2017-12-14T21:36:23.466Z,9.75
2017-12-14T21:38:50.623Z,8.80
2017-12-14T21:41:17.471Z,9.02
2017-12-14T21:43:44.332Z,9.07
2017-12-14T21:46:11.147Z,8.52
2017-12-14T21:48:37.951Z,9.02
2017-12-14T21:51:04.791Z,8.27
2017-12-14T21:53:31.882Z,8.32
2017-12-14T21:55:58.724Z,7.60
2017-12-14T21:58:25.590Z,7.87
2017-12-14T22:00:52.422Z,8.07
2017-12-14T22:03:19.294Z,7.87
2017-12-14T22:05:46.404Z,8.02
2017-12-14T22:08:13.445Z,8.53
2017-12-14T22:10:40.294Z,8.10
2017-12-14T22:13:07.151Z,8.50
2017-12-14T22:15:33.994Z,8.10
2017-12-14T22:18:00.851Z,7.80
2017-12-14T22:20:27.717Z,7.20
2017-12-14T22:22:54.819Z,7.40
2017-12-14T22:25:21.972Z,6.70
2017-12-14T22:27:49.114Z,6.90
2017-12-14T22:30:15.922Z,7.28
2017-12-14T22:32:43.007Z,7.28
2017-12-14T22:35:09.859Z,7.30
2017-12-14T22:37:37.004Z,7.68
2017-12-14T22:40:03.833Z,7.80
2017-12-14T22:42:30.999Z,7.70
2017-12-14T22:44:58.146Z,8.40
2017-12-14T22:47:25.015Z,8.30
2017-12-14T22:49:51.838Z,8.20
2017-12-14T22:52:18.695Z,8.15
2017-12-14T22:54:45.526Z,8.20
2017-12-14T22:57:12.334Z,8.20
2017-12-14T22:59:39.200Z,7.87
2017-12-14T23:02:06.043Z,8.18
2017-12-14T23:04:32.920Z,8.20
2017-12-14T23:06:59.741Z,9.48
2017-12-14T23:09:26.575Z,9.35
2017-12-14T23:11:53.431Z,9.20
2017-12-14T23:14:20.279Z,9.97
2017-12-14T23:16:47.131Z,9.80
2017-12-14T23:19:14.253Z,10.30
2017-12-14T23:21:41.078Z,10.57
2017-12-14T23:24:07.947Z,10.20
2017-12-14T23:26:35.097Z,10.65
2017-12-14T23:29:01.902Z,11.10
2017-12-14T23:31:29.094Z,11.20
2017-12-14T23:33:56.243Z,11.70
2017-12-14T23:36:23.046Z,12.20
2017-12-14T23:38:49.899Z,13.02
2017-12-14T23:41:16.727Z,13.10
2017-12-14T23:43:43.580Z,12.63
2017-12-14T23:46:10.454Z,12.32
2017-12-14T23:48:37.602Z,12.45
2017-12-14T23:51:04.758Z,12.70
2017-12-14T23:53:31.656Z,11.17
2017-12-14T23:55:58.503Z,11.50
2017-12-14T23:58:25.344Z,11.93
